Time;durP1;ratioP1;P1;durP2;ratioP2;P2;SDS_P1;SDS_P2;PMS_P1;PMS_P2;Temp;Humidity;BMP_temperature;BMP_pressure;BME280_temperature;BME280_humidity;BME280_pressure;Samples;Min_cycle;Max_cycle;Signal;HPM_P1;HPM_P2
2021/08/10 00:02:25;;;;;;;6.80;3.77;;;14.70;90.00;;;;;;5052069;28;20247;-62
2021/08/10 00:04:52;;;;;;;5.93;3.30;;;14.70;73.20;;;;;;5051444;28;20315;-62
2021/08/10 00:07:19;;;;;;;6.47;3.23;;;14.70;57.70;;;;;;5051947;28;20212;-62
2021/08/10 00:09:45;;;;;;;6.47;3.37;;;14.60;39.50;;;;;;5052029;28;20221;-62
2021/08/10 00:12:12;;;;;;;5.03;3.43;;;14.60;35.00;;;;;;5052188;28;20206;-61
2021/08/10 00:14:39;;;;;;;7.37;3.50;;;14.60;19.10;;;;;;5051546;28;20213;-62
2021/08/10 00:17:05;;;;;;;8.33;3.30;;;14.50;9.50;;;;;;5051774;28;20205;-62
2021/08/10 00:19:33;;;;;;;5.07;3.17;;;14.50;14.90;;;;;;5051278;28;20251;-62
2021/08/10 00:22:00;;;;;;;5.90;3.50;;;14.40;17.90;;;;;;5052005;28;20209;-62
2021/08/10 00:24:27;;;;;;;10.23;3.30;;;14.40;23.30;;;;;;5051407;28;20219;-62
2021/08/10 00:26:53;;;;;;;7.57;3.70;;;14.30;43.70;;;;;;5050785;28;20208;-61
2021/08/10 00:29:20;;;;;;;7.67;3.50;;;14.30;53.50;;;;;;5051683;28;20202;-62
2021/08/10 00:31:46;;;;;;;5.00;3.10;;;14.30;56.10;;;;;;5051485;28;20259;-62
2021/08/10 00:34:13;;;;;;;5.07;3.50;;;14.30;63.50;;;;;;5051155;28;20281;-61
2021/08/10 00:36:41;;;;;;;6.87;3.60;;;14.30;62.50;;;;;;5051344;28;20261;-61
2021/08/10 00:39:08;;;;;;;8.77;3.80;;;14.30;53.10;;;;;;5051582;28;20278;-62
2021/08/10 00:41:34;;;;;;;7.80;3.90;;;14.20;63.50;;;;;;5051386;28;20233;-61
2021/08/10 00:44:01;;;;;;;5.80;3.73;;;14.20;74.60;;;;;;5051552;28;20209;-61
2021/08/10 00:46:28;;;;;;;7.43;3.73;;;14.20;70.20;;;;;;5051135;28;20255;-62
2021/08/10 00:48:54;;;;;;;6.43;3.73;;;14.20;80.00;;;;;;5051334;28;20217;-62
2021/08/10 00:51:21;;;;;;;7.83;4.00;;;14.20;72.20;;;;;;5051521;28;20282;-61
2021/08/10 00:53:50;;;;;;;6.67;3.70;;;14.20;77.30;;;;;;5051219;28;20205;-62
2021/08/10 00:56:16;;;;;;;9.37;3.63;;;14.10;78.00;;;;;;5051074;28;20202;-62
2021/08/10 00:58:43;;;;;;;6.23;3.27;;;14.10;80.40;;;;;;5051238;28;20697;-62
2021/08/10 01:01:09;;;;;;;7.00;3.53;;;14.10;80.40;;;;;;5051090;28;20275;-62
2021/08/10 01:03:36;;;;;;;12.60;3.80;;;14.10;83.70;;;;;;5051255;28;20213;-62
2021/08/10 01:06:09;;;;;;;6.10;3.70;;;14.10;90.60;;;;;;5050930;28;20748;-62
2021/08/10 01:08:46;;;;;;;5.93;3.80;;;14.00;93.60;;;;;;5051425;28;20619;-62
2021/08/10 01:11:22;;;;;;;6.53;3.60;;;14.00;96.40;;;;;;5051155;28;20228;-62
2021/08/10 01:13:53;;;;;;;7.90;3.73;;;14.00;99.90;;;;;;5051054;28;20217;-62
2021/08/10 01:16:27;;;;;;;8.40;4.17;;;14.00;99.90;;;;;;5051048;28;20311;-62
2021/08/10 01:19:02;;;;;;;8.13;4.10;;;14.00;99.90;;;;;;5051320;28;20235;-61
2021/08/10 01:21:33;;;;;;;5.73;3.63;;;14.00;99.90;;;;;;5051390;28;20298;-62
2021/08/10 01:24:05;;;;;;;8.07;3.87;;;14.00;99.90;;;;;;5050894;28;20205;-61
2021/08/10 01:26:45;;;;;;;8.60;3.90;;;13.90;99.90;;;;;;5050901;28;20630;-62
2021/08/10 01:29:19;;;;;;;7.07;3.70;;;13.90;99.90;;;;;;5051261;28;20209;-62
2021/08/10 01:31:49;;;;;;;7.07;4.37;;;13.90;99.90;;;;;;5051139;28;20213;-61
2021/08/10 01:34:21;;;;;;;5.40;3.80;;;13.90;99.90;;;;;;5050771;28;20209;-61
2021/08/10 01:36:49;;;;;;;7.70;3.57;;;13.90;99.90;;;;;;5052003;28;20217;-62
2021/08/10 01:39:18;;;;;;;8.80;3.70;;;13.90;99.90;;;;;;5054503;28;20736;-62
2021/08/10 01:41:45;;;;;;;8.70;4.50;;;13.90;99.90;;;;;;5055115;28;20208;-61
2021/08/10 01:44:15;;;;;;;8.70;4.70;;;13.80;99.90;;;;;;5052846;28;20267;-61
2021/08/10 01:46:42;;;;;;;10.53;4.63;;;13.90;99.90;;;;;;5054621;28;20210;-61
2021/08/10 01:49:10;;;;;;;8.13;4.03;;;13.80;99.90;;;;;;5053997;28;20213;-62
2021/08/10 01:51:37;;;;;;;7.63;4.47;;;13.80;99.90;;;;;;5054697;28;20464;-62
2021/08/10 01:54:07;;;;;;;8.47;4.53;;;13.80;99.90;;;;;;5054220;28;20211;-62
2021/08/10 01:56:34;;;;;;;8.17;4.53;;;13.80;99.90;;;;;;5054338;28;20291;-62
2021/08/10 01:59:02;;;;;;;9.90;4.53;;;13.80;99.90;;;;;;5054126;28;20228;-62
2021/08/10 02:01:30;;;;;;;8.63;4.43;;;13.70;99.90;;;;;;5052460;28;20232;-62
2021/08/10 02:03:57;;;;;;;6.23;4.20;;;13.70;99.90;;;;;;5054357;28;20213;-62
2021/08/10 02:06:26;;;;;;;8.70;4.23;;;13.70;99.90;;;;;;5054402;28;20212;-62
2021/08/10 02:08:55;;;;;;;7.47;4.63;;;13.70;99.90;;;;;;5054211;28;20270;-61
2021/08/10 02:11:23;;;;;;;9.77;4.20;;;13.80;99.90;;;;;;5053771;28;20229;-62
2021/08/10 02:13:52;;;;;;;6.40;4.37;;;13.80;99.90;;;;;;5054040;28;20247;-62
2021/08/10 02:16:19;;;;;;;8.27;4.27;;;13.80;99.90;;;;;;5054005;28;20252;-62
2021/08/10 02:18:47;;;;;;;10.80;4.50;;;13.80;99.90;;;;;;5052227;28;20254;-62
2021/08/10 02:21:23;;;;;;;11.43;4.73;;;13.80;99.90;;;;;;5053717;28;20232;-62
2021/08/10 02:23:55;;;;;;;9.57;4.50;;;13.80;99.90;;;;;;5053830;28;20270;-62
2021/08/10 02:26:22;;;;;;;7.30;4.37;;;13.80;99.90;;;;;;5052886;28;20205;-63
2021/08/10 02:28:50;;;;;;;9.53;5.13;;;13.80;99.90;;;;;;5053750;28;20288;-62
2021/08/10 02:31:18;;;;;;;7.83;4.40;;;13.80;99.90;;;;;;5053579;28;20234;-62
2021/08/10 02:33:46;;;;;;;9.13;4.40;;;13.80;99.90;;;;;;5053636;28;20215;-62
2021/08/10 02:36:14;;;;;;;8.33;4.60;;;13.80;99.90;;;;;;5052782;28;20638;-61
2021/08/10 02:38:43;;;;;;;12.57;4.53;;;13.80;99.90;;;;;;5053591;28;20259;-61
2021/08/10 02:41:12;;;;;;;11.87;4.30;;;13.90;99.90;;;;;;5053126;28;20238;-62
2021/08/10 02:43:40;;;;;;;7.13;4.13;;;13.90;99.90;;;;;;5053446;28;20210;-62
2021/08/10 02:46:07;;;;;;;6.77;4.13;;;13.90;99.90;;;;;;5053421;28;20677;-62
2021/08/10 02:48:33;;;;;;;10.77;4.43;;;13.90;99.90;;;;;;5052897;28;20670;-62
2021/08/10 02:51:00;;;;;;;10.60;4.83;;;14.00;99.90;;;;;;5051613;28;20228;-61
2021/08/10 02:53:28;;;;;;;8.17;4.27;;;14.00;99.90;;;;;;5052740;28;20224;-62
2021/08/10 02:56:02;;;;;;;8.17;4.13;;;14.00;99.90;;;;;;5053109;28;20206;-62
2021/08/10 02:58:36;;;;;;;7.30;4.30;;;14.00;99.90;;;;;;5053216;28;20205;-62
2021/08/10 03:01:07;;;;;;;7.83;4.50;;;14.10;99.90;;;;;;5053229;28;20218;-62
2021/08/10 03:03:34;;;;;;;8.50;4.00;;;14.10;99.90;;;;;;5053063;28;20205;-62
2021/08/10 03:06:04;;;;;;;7.40;4.03;;;14.10;99.90;;;;;;5053008;28;20208;-62
2021/08/10 03:08:33;;;;;;;11.63;4.37;;;14.10;99.90;;;;;;5051734;28;20243;-63
2021/08/10 03:11:01;;;;;;;7.87;4.50;;;14.20;99.90;;;;;;5053072;28;20221;-62
2021/08/10 03:13:38;;;;;;;7.13;4.10;;;14.20;99.90;;;;;;5052912;28;20254;-62
2021/08/10 03:16:06;;;;;;;7.37;4.23;;;14.20;99.90;;;;;;5052837;28;20208;-62
2021/08/10 03:18:35;;;;;;;6.70;4.03;;;14.20;99.90;;;;;;5052766;28;20205;-61
2021/08/10 03:21:03;;;;;;;10.03;3.93;;;14.30;99.90;;;;;;5052534;28;20643;-62
2021/08/10 03:23:33;;;;;;;9.70;4.27;;;14.30;99.90;;;;;;5052743;28;20221;-62
2021/08/10 03:26:00;;;;;;;10.87;4.83;;;14.30;99.90;;;;;;5051244;28;20205;-62
2021/08/10 03:28:29;;;;;;;6.83;4.07;;;14.30;99.90;;;;;;5052531;28;20209;-62
2021/08/10 03:30:58;;;;;;;9.03;3.93;;;14.30;99.90;;;;;;5052492;28;20710;-61
2021/08/10 03:33:28;;;;;;;7.30;4.03;;;14.30;99.90;;;;;;5052289;28;20622;-61
2021/08/10 03:35:56;;;;;;;8.07;3.97;;;14.30;99.90;;;;;;5052714;28;20612;-62
2021/08/10 03:38:24;;;;;;;7.30;3.87;;;14.30;99.90;;;;;;5052426;28;20255;-62
2021/08/10 03:40:51;;;;;;;9.70;4.37;;;14.40;99.90;;;;;;5051663;28;20232;-62
2021/08/10 03:43:19;;;;;;;8.20;4.70;;;14.40;99.90;;;;;;5051504;28;20205;-62
2021/08/10 03:45:46;;;;;;;9.80;4.13;;;14.40;99.90;;;;;;5052192;28;20236;-62
2021/08/10 03:48:14;;;;;;;9.07;4.63;;;14.40;99.90;;;;;;5052388;28;20214;-62
2021/08/10 03:50:41;;;;;;;8.67;5.13;;;14.40;99.90;;;;;;5052318;28;20359;-61
2021/08/10 03:53:08;;;;;;;9.00;5.13;;;14.30;99.90;;;;;;5052490;28;20293;-62
2021/08/10 03:55:35;;;;;;;8.27;4.30;;;14.30;99.90;;;;;;5052052;28;20208;-62
2021/08/10 03:58:06;;;;;;;6.27;4.50;;;14.30;99.90;;;;;;5052364;28;20630;-61
2021/08/10 04:00:37;;;;;;;6.60;3.93;;;14.30;99.90;;;;;;5050114;28;20233;-62
2021/08/10 04:03:08;;;;;;;7.43;4.27;;;14.30;99.90;;;;;;5052257;28;20319;-62
2021/08/10 04:05:39;;;;;;;7.00;4.43;;;14.20;99.90;;;;;;5052023;28;20216;-62
2021/08/10 04:08:09;;;;;;;7.30;4.17;;;14.30;99.90;;;;;;5051793;28;20212;-62
2021/08/10 04:10:38;;;;;;;7.17;3.93;;;14.20;99.90;;;;;;5052044;28;20225;-62
2021/08/10 04:13:05;;;;;;;8.67;4.10;;;14.20;99.90;;;;;;5051815;28;20262;-61
2021/08/10 04:15:32;;;;;;;5.73;4.00;;;14.20;99.90;;;;;;5051903;28;20209;-62
2021/08/10 04:18:02;;;;;;;7.13;4.53;;;14.20;99.90;;;;;;5050284;28;20205;-62
2021/08/10 04:20:28;;;;;;;7.53;4.80;;;14.20;99.90;;;;;;5051612;28;20233;-62
2021/08/10 04:22:56;;;;;;;9.23;4.23;;;14.10;99.90;;;;;;5051679;28;20674;-62
2021/08/10 04:25:23;;;;;;;11.07;4.93;;;14.10;99.90;;;;;;5051382;28;20209;-62
2021/08/10 04:27:50;;;;;;;10.57;5.07;;;14.10;99.90;;;;;;5051550;28;20205;-62
2021/08/10 04:30:16;;;;;;;9.67;5.20;;;14.00;99.90;;;;;;5051464;28;20233;-62
2021/08/10 04:32:43;;;;;;;9.07;4.73;;;13.90;99.90;;;;;;5051741;28;20216;-62
2021/08/10 04:35:10;;;;;;;6.33;4.60;;;14.00;99.90;;;;;;5049854;28;20612;-62
2021/08/10 04:37:36;;;;;;;8.77;4.87;;;14.00;99.90;;;;;;5051704;28;20578;-62
2021/08/10 04:40:06;;;;;;;7.77;4.83;;;13.90;99.90;;;;;;5050911;28;20234;-62
2021/08/10 04:42:34;;;;;;;9.73;4.50;;;13.90;99.90;;;;;;5051005;28;20212;-62
2021/08/10 04:45:00;;;;;;;9.20;4.23;;;13.90;99.90;;;;;;5051481;28;20212;-62
2021/08/10 04:47:27;;;;;;;7.27;4.47;;;13.90;99.90;;;;;;5051623;28;20209;-62
2021/08/10 04:49:54;;;;;;;8.43;4.37;;;13.90;99.90;;;;;;5051314;28;20221;-62
2021/08/10 04:52:21;;;;;;;8.20;4.63;;;13.80;99.90;;;;;;5049492;28;20287;-62
2021/08/10 04:54:48;;;;;;;6.30;4.17;;;13.80;99.90;;;;;;5051604;28;20211;-61
2021/08/10 04:57:16;;;;;;;10.83;4.80;;;13.80;99.90;;;;;;5051322;28;20209;-62
2021/08/10 04:59:43;;;;;;;6.43;3.90;;;13.70;99.90;;;;;;5051165;28;20762;-62
2021/08/10 05:02:10;;;;;;;8.20;4.30;;;13.70;99.90;;;;;;5051251;28;20209;-62
2021/08/10 05:04:36;;;;;;;8.20;4.60;;;13.60;99.90;;;;;;5050946;28;20674;-62
2021/08/10 05:07:03;;;;;;;6.17;4.00;;;13.60;99.90;;;;;;5051396;28;20212;-61
2021/08/10 05:09:32;;;;;;;13.97;4.73;;;13.60;99.90;;;;;;5049734;28;20262;-62
2021/08/10 05:11:58;;;;;;;8.57;4.50;;;13.60;99.90;;;;;;5052591;28;20289;-62
2021/08/10 05:14:26;;;;;;;7.87;4.50;;;13.60;99.90;;;;;;5054917;28;20250;-61
2021/08/10 05:16:53;;;;;;;7.27;4.77;;;13.60;99.90;;;;;;5055264;28;20201;-62
2021/08/10 05:19:20;;;;;;;11.33;4.57;;;13.50;99.90;;;;;;5053170;28;20254;-62
2021/08/10 05:21:46;;;;;;;10.23;4.70;;;13.50;99.90;;;;;;5054813;28;20248;-62
2021/08/10 05:24:13;;;;;;;8.23;4.67;;;13.60;99.90;;;;;;5055116;28;20263;-62
2021/08/10 05:26:40;;;;;;;9.17;4.73;;;13.60;99.90;;;;;;5052992;28;20204;-62
2021/08/10 05:29:06;;;;;;;7.53;4.70;;;13.60;99.90;;;;;;5054922;28;20614;-61
2021/08/10 05:31:34;;;;;;;7.13;4.47;;;13.70;99.90;;;;;;5054538;28;20261;-62
2021/08/10 05:34:01;;;;;;;7.70;5.17;;;13.70;99.90;;;;;;5053786;28;20238;-62
2021/08/10 05:36:27;;;;;;;6.27;4.50;;;13.70;99.90;;;;;;5054143;28;20209;-62
2021/08/10 05:38:54;;;;;;;6.50;4.33;;;13.70;99.90;;;;;;5054905;28;20216;-62
2021/08/10 05:41:21;;;;;;;6.77;4.13;;;13.80;99.90;;;;;;5054684;28;20239;-62
2021/08/10 05:43:48;;;;;;;7.57;4.20;;;13.80;99.90;;;;;;5040032;28;20213;-62
2021/08/10 05:46:15;;;;;;;7.93;4.20;;;13.90;99.90;;;;;;5034650;28;20264;-61
2021/08/10 05:48:43;;;;;;;11.53;4.67;;;13.90;99.90;;;;;;5034455;28;20264;-62
2021/08/10 05:51:09;;;;;;;6.37;4.37;;;13.90;99.90;;;;;;5034775;28;20292;-62
2021/08/10 05:53:36;;;;;;;7.17;4.10;;;14.00;99.90;;;;;;5034305;28;20287;-62
2021/08/10 05:56:03;;;;;;;5.60;4.23;;;14.10;99.90;;;;;;5034260;28;20209;-62
2021/08/10 05:58:30;;;;;;;8.67;4.37;;;14.10;99.90;;;;;;5034498;28;20210;-62
2021/08/10 06:00:57;;;;;;;6.13;3.90;;;14.20;99.90;;;;;;5045319;28;20279;-62
2021/08/10 06:03:23;;;;;;;7.10;4.57;;;14.30;99.90;;;;;;5054189;28;20577;-62
2021/08/10 06:05:51;;;;;;;6.63;4.07;;;14.30;99.90;;;;;;5054204;28;20255;-64
2021/08/10 06:08:18;;;;;;;6.63;3.80;;;14.40;99.90;;;;;;5050145;28;20212;-63
2021/08/10 06:10:44;;;;;;;7.07;3.97;;;14.50;99.90;;;;;;5053874;28;20291;-63
2021/08/10 06:13:11;;;;;;;8.53;4.80;;;14.60;99.90;;;;;;5053792;28;20202;-63
2021/08/10 06:15:38;;;;;;;6.83;4.10;;;14.70;92.50;;;;;;5053657;28;20210;-63
2021/08/10 06:18:05;;;;;;;8.93;4.53;;;14.80;68.30;;;;;;5051924;28;20255;-63
2021/08/10 06:20:31;;;;;;;6.03;3.93;;;14.80;1.00;;;;;;5053488;28;20294;-65
2021/08/10 06:23:01;;;;;;;7.23;4.27;;;14.80;1.00;;;;;;5052890;28;20225;-64
2021/08/10 06:25:28;;;;;;;6.17;4.20;;;14.90;1.00;;;;;;5053364;28;20237;-64
2021/08/10 06:27:54;;;;;;;7.47;4.00;;;14.90;1.00;;;;;;5033333;28;20203;-63
2021/08/10 06:30:21;;;;;;;5.13;3.70;;;14.80;1.00;;;;;;5032927;28;20597;-61
2021/08/10 06:32:48;;;;;;;6.17;3.93;;;14.90;1.00;;;;;;5038024;28;20613;-63
2021/08/10 06:35:14;;;;;;;6.03;4.37;;;14.90;1.00;;;;;;5051177;28;20206;-63
2021/08/10 06:37:41;;;;;;;7.23;4.10;;;14.90;1.00;;;;;;5053229;28;20255;-62
2021/08/10 06:40:10;;;;;;;6.13;3.83;;;15.00;1.00;;;;;;5053297;28;20221;-63
2021/08/10 06:42:37;;;;;;;6.40;3.67;;;15.00;1.00;;;;;;5052899;28;20210;-62
2021/08/10 06:45:04;;;;;;;6.80;3.80;;;15.10;1.00;;;;;;5052886;28;20255;-65
2021/08/10 06:47:31;;;;;;;6.50;3.97;;;15.20;1.00;;;;;;5052885;28;20263;-64
2021/08/10 06:49:58;;;;;;;6.33;4.17;;;15.20;1.00;;;;;;5053084;28;20718;-64
2021/08/10 06:52:24;;;;;;;6.97;4.30;;;15.30;1.00;;;;;;5037492;28;20206;-65
2021/08/10 06:54:51;;;;;;;7.03;4.47;;;15.30;1.00;;;;;;5033046;28;20651;-62
2021/08/10 06:57:19;;;;;;;6.00;4.20;;;15.40;1.00;;;;;;5032553;28;20202;-62
2021/08/10 06:59:45;;;;;;;6.93;4.43;;;15.50;1.00;;;;;;5033149;28;20230;-62
2021/08/10 07:02:13;;;;;;;10.20;5.23;;;15.50;1.00;;;;;;5032872;28;20658;-62
2021/08/10 07:04:39;;;;;;;9.40;4.77;;;15.60;99.90;;;;;;5032962;28;20233;-62
2021/08/10 07:07:07;;;;;;;6.30;4.47;;;15.70;99.90;;;;;;5031511;28;20207;-63
2021/08/10 07:09:34;;;;;;;4.37;3.10;;;15.80;99.90;;;;;;5032915;28;20662;-63
2021/08/10 07:12:01;;;;;;;5.97;3.73;;;15.90;99.90;;;;;;5032656;28;20244;-63
2021/08/10 07:14:28;;;;;;;5.10;3.53;;;16.00;99.90;;;;;;5032928;28;20210;-63
2021/08/10 07:16:55;;;;;;;5.37;3.77;;;16.00;94.80;;;;;;5032470;28;20810;-65
2021/08/10 07:19:22;;;;;;;5.23;3.67;;;16.00;91.60;;;;;;5032656;28;20264;-64
2021/08/10 07:21:48;;;;;;;5.90;3.90;;;16.00;1.00;;;;;;5032618;28;20233;-63
2021/08/10 07:24:15;;;;;;;5.63;3.80;;;16.00;1.00;;;;;;5032481;28;20206;-63
2021/08/10 07:26:42;;;;;;;6.03;4.27;;;16.20;1.00;;;;;;5032506;28;20711;-63
2021/08/10 07:29:09;;;;;;;4.57;3.27;;;16.30;99.90;;;;;;5031703;28;20207;-63
2021/08/10 07:31:37;;;;;;;8.57;3.70;;;16.40;99.90;;;;;;5032524;28;20230;-63
2021/08/10 07:34:03;;;;;;;5.87;3.73;;;16.50;1.00;;;;;;5032141;28;20253;-63
2021/08/10 07:36:30;;;;;;;5.67;3.37;;;16.60;1.00;;;;;;5032433;28;20210;-63
2021/08/10 07:38:56;;;;;;;6.57;3.80;;;16.70;1.00;;;;;;5040765;28;20205;-63
2021/08/10 07:41:23;;;;;;;5.30;3.77;;;16.80;99.90;;;;;;5051030;28;20230;-63
2021/08/10 07:43:50;;;;;;;5.30;3.30;;;16.90;1.00;;;;;;5051291;28;20255;-63
2021/08/10 07:46:16;;;;;;;5.33;3.37;;;16.90;75.00;;;;;;5051354;28;20296;-63
2021/08/10 07:48:44;;;;;;;5.03;3.13;;;16.90;99.90;;;;;;5051368;28;20728;-63
2021/08/10 07:51:11;;;;;;;4.43;3.40;;;16.90;99.90;;;;;;5051338;28;20226;-63
2021/08/10 07:53:38;;;;;;;5.80;3.17;;;17.00;93.50;;;;;;5050941;28;20279;-63
2021/08/10 07:56:05;;;;;;;17.17;4.00;;;17.00;1.00;;;;;;5051571;28;20263;-63
2021/08/10 07:58:31;;;;;;;4.87;3.60;;;17.10;99.90;;;;;;5051554;28;20253;-64
2021/08/10 08:00:58;;;;;;;3.93;2.97;;;17.30;99.90;;;;;;5051029;28;20889;-63
2021/08/10 08:03:25;;;;;;;3.60;2.60;;;17.60;17.10;;;;;;5050758;28;20209;-62
2021/08/10 08:05:53;;;;;;;4.83;2.80;;;17.80;99.90;;;;;;5051116;28;20723;-64
2021/08/10 08:08:20;;;;;;;4.93;3.00;;;18.00;99.90;;;;;;5051113;28;20205;-64
2021/08/10 08:10:47;;;;;;;5.47;2.67;;;18.20;1.00;;;;;;5051348;28;20226;-65
2021/08/10 08:13:13;;;;;;;6.90;3.40;;;18.30;18.20;;;;;;5050861;28;20210;-64
2021/08/10 08:15:40;;;;;;;6.17;2.77;;;18.40;99.90;;;;;;5050677;28;20263;-64
2021/08/10 08:18:06;;;;;;;5.67;2.70;;;18.30;1.00;;;;;;5051045;28;20205;-64
2021/08/10 08:20:33;;;;;;;7.40;2.80;;;18.40;99.90;;;;;;5050790;28;20229;-63
2021/08/10 08:23:01;;;;;;;5.53;2.80;;;18.30;99.90;;;;;;5050709;28;20217;-65
2021/08/10 08:25:28;;;;;;;5.60;2.80;;;18.30;99.90;;;;;;5050648;28;20347;-65
2021/08/10 08:27:55;;;;;;;6.27;2.73;;;18.40;1.00;;;;;;5050854;28;20619;-65
2021/08/10 08:30:21;;;;;;;4.70;3.00;;;18.60;99.90;;;;;;5050584;28;20295;-63
2021/08/10 08:32:48;;;;;;;4.83;2.70;;;18.60;1.00;;;;;;5050748;28;20209;-65
2021/08/10 08:35:15;;;;;;;5.57;3.20;;;18.50;24.50;;;;;;5050562;28;20205;-64
2021/08/10 08:37:41;;;;;;;6.17;3.20;;;18.50;99.90;;;;;;5050636;28;20217;-65
2021/08/10 08:40:10;;;;;;;5.60;3.30;;;18.60;1.00;;;;;;5050703;28;20226;-64
2021/08/10 08:42:37;;;;;;;6.03;2.80;;;18.80;99.90;;;;;;5050182;28;20815;-61
2021/08/10 08:45:08;;;;;;;3.90;2.40;;;19.00;70.70;;;;;;5050318;28;20262;-62
2021/08/10 08:47:35;;;;;;;6.10;2.60;;;19.20;1.00;;;;;;5050119;28;20255;-62
2021/08/10 08:50:02;;;;;;;4.10;2.83;;;19.20;99.90;;;;;;5050564;28;20767;-62
2021/08/10 08:52:30;;;;;;;4.83;2.50;;;19.10;99.90;;;;;;5050165;28;20263;-62
2021/08/10 08:54:57;;;;;;;5.80;2.90;;;19.10;99.90;;;;;;5050298;28;20248;-65
2021/08/10 08:57:25;;;;;;;3.63;2.77;;;19.10;99.90;;;;;;5050607;28;20291;-64
2021/08/10 08:59:52;;;;;;;5.47;2.60;;;19.30;99.90;;;;;;5049942;28;20682;-65
2021/08/10 09:02:19;;;;;;;5.87;2.80;;;19.20;99.90;;;;;;5050335;28;20264;-64
2021/08/10 09:04:46;;;;;;;5.63;2.97;;;19.20;99.90;;;;;;5050230;28;20283;-65
2021/08/10 09:07:13;;;;;;;4.57;2.83;;;19.20;99.90;;;;;;5050550;28;20898;-64
2021/08/10 09:09:40;;;;;;;4.50;2.50;;;19.20;99.90;;;;;;5050210;28;20213;-64
2021/08/10 09:12:12;;;;;;;4.93;2.50;;;19.40;99.90;;;;;;5050059;28;20666;-63
2021/08/10 09:14:48;;;;;;;4.30;2.50;;;19.50;99.90;;;;;;5051112;28;20202;-65
2021/08/10 09:17:17;;;;;;;5.03;3.30;;;19.30;24.00;;;;;;5044822;28;20209;-64
2021/08/10 09:19:47;;;;;;;6.10;2.93;;;19.20;99.90;;;;;;5050453;28;20291;-65
2021/08/10 09:22:20;;;;;;;4.90;3.17;;;19.20;99.90;;;;;;5050350;28;20233;-65
2021/08/10 09:24:51;;;;;;;3.77;2.40;;;19.10;99.90;;;;;;5049597;28;20206;-65
2021/08/10 09:27:25;;;;;;;6.20;2.90;;;19.30;99.90;;;;;;5050027;28;20206;-65
2021/08/10 09:29:53;;;;;;;4.43;2.80;;;19.40;99.90;;;;;;5050021;28;20260;-62
2021/08/10 09:32:21;;;;;;;4.60;3.00;;;19.60;99.90;;;;;;5047921;28;20197;-63
2021/08/10 09:35:04;;;;;;;3.93;2.57;;;19.60;99.90;;;;;;5049687;28;20678;-62
2021/08/10 09:37:31;;;;;;;4.20;2.67;;;19.30;86.80;;;;;;5049854;28;20258;-63
2021/08/10 09:39:58;;;;;;;5.77;3.13;;;19.10;99.90;;;;;;5049748;28;20225;-62
2021/08/10 09:42:26;;;;;;;5.53;3.13;;;18.90;99.90;;;;;;5049738;28;20226;-61
2021/08/10 09:45:04;;;;;;;5.03;2.57;;;19.00;1.00;;;;;;5050040;28;20259;-65
2021/08/10 09:47:31;;;;;;;6.00;3.57;;;19.10;1.00;;;;;;5050244;28;20206;-65
2021/08/10 09:49:59;;;;;;;4.23;3.00;;;19.10;1.00;;;;;;5047789;28;20271;-64
2021/08/10 09:52:27;;;;;;;6.93;3.60;;;19.20;99.90;;;;;;5049876;28;20202;-64
2021/08/10 09:54:53;;;;;;;12.40;4.30;;;19.10;1.00;;;;;;5050011;28;20681;-65
2021/08/10 09:57:20;;;;;;;5.83;3.47;;;19.10;1.00;;;;;;5049601;28;20202;-65
2021/08/10 09:59:48;;;;;;;5.77;3.50;;;19.10;1.00;;;;;;5053691;28;20233;-65
2021/08/10 10:02:20;;;;;;;6.20;3.67;;;19.10;1.00;;;;;;5053424;28;20252;-63
2021/08/10 10:04:51;;;;;;;6.53;3.90;;;19.20;99.90;;;;;;5050439;28;20209;-63
2021/08/10 10:07:18;;;;;;;7.17;3.83;;;19.10;1.00;;;;;;5053115;28;20660;-64
2021/08/10 10:09:45;;;;;;;6.37;3.97;;;19.10;99.90;;;;;;5053413;28;20230;-64
2021/08/10 10:12:13;;;;;;;7.23;3.73;;;19.20;58.60;;;;;;5053051;28;20625;-63
2021/08/10 10:14:41;;;;;;;6.90;3.57;;;19.40;99.90;;;;;;5053171;28;20201;-64
2021/08/10 10:17:09;;;;;;;6.93;4.40;;;19.60;1.00;;;;;;5052870;28;20205;-64
2021/08/10 10:19:39;;;;;;;6.87;3.70;;;19.70;99.90;;;;;;5050726;28;20202;-64
2021/08/10 10:22:14;;;;;;;8.83;4.27;;;19.80;99.90;;;;;;5053077;28;20280;-64
2021/08/10 10:24:47;;;;;;;9.03;3.80;;;19.80;62.70;;;;;;5053087;28;20202;-63
2021/08/10 10:27:16;;;;;;;6.63;4.33;;;19.90;99.90;;;;;;5052369;28;20271;-64
2021/08/10 10:29:43;;;;;;;7.23;4.70;;;20.00;99.90;;;;;;5052680;28;20225;-64
2021/08/10 10:32:09;;;;;;;8.67;4.87;;;20.10;99.90;;;;;;5053005;28;20198;-63
2021/08/10 10:34:38;;;;;;;7.40;4.17;;;20.10;99.90;;;;;;5052740;28;20252;-63
2021/08/10 10:37:06;;;;;;;7.70;4.30;;;20.30;99.90;;;;;;5050067;28;20214;-64
2021/08/10 10:39:36;;;;;;;7.17;3.37;;;20.40;99.90;;;;;;5052801;28;20225;-62
2021/08/10 10:42:07;;;;;;;7.20;3.37;;;20.50;99.90;;;;;;5052678;28;20225;-63
2021/08/10 10:44:38;;;;;;;5.90;3.10;;;20.40;99.90;;;;;;5052461;28;20267;-64
2021/08/10 10:47:37;;;;;;;8.77;4.07;;;20.50;99.90;;;;;;5052607;28;20244;-64
2021/08/10 10:50:20;;;;;;;5.00;3.43;;;20.60;99.90;;;;;;5034036;28;20253;-64
2021/08/10 10:53:08;;;;;;;7.03;3.60;;;20.50;99.90;;;;;;5045051;28;20202;-63
2021/08/10 10:55:37;;;;;;;5.23;3.13;;;20.70;99.00;;;;;;5045377;28;20213;-65
2021/08/10 10:58:29;;;;;;;5.63;3.30;;;20.70;1.00;;;;;;5051944;28;20616;-63
2021/08/10 11:01:12;;;;;;;5.13;3.10;;;20.80;1.00;;;;;;5052728;28;20236;-64
2021/08/10 11:03:41;;;;;;;5.43;3.30;;;20.60;1.00;;;;;;5052154;28;20293;-63
2021/08/10 11:06:31;;;;;;;6.13;3.40;;;20.50;1.00;;;;;;5052562;28;20209;-65
2021/08/10 11:08:58;;;;;;;5.13;2.90;;;20.60;1.00;;;;;;5049160;28;20209;-65
2021/08/10 11:11:44;;;;;;;6.20;3.27;;;20.60;1.00;;;;;;5051094;28;20600;-65
2021/08/10 11:14:44;;;;;;;5.13;3.63;;;20.50;1.00;;;;;;5051958;28;20229;-65
2021/08/10 11:17:15;;;;;;;6.17;3.50;;;20.50;1.00;;;;;;5052302;28;20213;-64
2021/08/10 11:19:43;;;;;;;6.50;3.20;;;20.60;1.00;;;;;;5051960;28;20259;-65
2021/08/10 11:22:26;;;;;;;5.07;3.00;;;20.80;1.00;;;;;;5051636;28;20600;-64
2021/08/10 11:24:56;;;;;;;5.47;3.20;;;20.90;1.00;;;;;;5048972;28;20206;-64
2021/08/10 11:27:38;;;;;;;6.53;3.50;;;21.00;1.00;;;;;;5051687;28;20237;-64
2021/08/10 11:30:08;;;;;;;5.90;3.20;;;21.20;1.00;;;;;;5051490;28;20721;-64
2021/08/10 11:32:36;;;;;;;4.20;3.00;;;21.30;1.00;;;;;;5051566;28;20568;-63
2021/08/10 11:35:28;;;;;;;6.37;3.33;;;21.20;1.00;;;;;;5051461;28;20208;-65
2021/08/10 11:38:16;;;;;;;5.93;3.63;;;21.20;1.00;;;;;;5051654;28;20205;-64
2021/08/10 11:40:55;;;;;;;6.47;3.80;;;21.10;1.00;;;;;;5049215;28;20265;-64
2021/08/10 11:43:24;;;;;;;5.23;3.93;;;21.10;1.00;;;;;;5051296;28;20221;-64
2021/08/10 11:45:51;;;;;;;4.23;3.23;;;21.20;1.00;;;;;;5051613;28;20236;-65
2021/08/10 11:48:22;;;;;;;5.10;3.50;;;21.20;1.00;;;;;;5051408;28;20206;-64
2021/08/10 11:50:49;;;;;;;6.80;3.23;;;21.20;99.90;;;;;;5051645;28;20264;-63
2021/08/10 11:53:30;;;;;;;5.97;3.33;;;21.30;99.90;;;;;;5051384;28;20205;-64
2021/08/10 11:55:57;;;;;;;7.90;3.67;;;21.50;1.00;;;;;;5048583;28;20298;-65
2021/08/10 11:58:41;;;;;;;6.27;3.33;;;21.70;99.90;;;;;;5051201;28;20256;-64
2021/08/10 12:01:08;;;;;;;4.67;3.20;;;21.80;99.90;;;;;;5051940;28;20229;-64
2021/08/10 12:03:34;;;;;;;5.00;3.20;;;22.00;1.00;;;;;;5051108;28;20252;-64
2021/08/10 12:06:01;;;;;;;5.47;2.93;;;21.60;99.90;;;;;;5051221;28;20209;-64
2021/08/10 12:08:29;;;;;;;5.03;3.10;;;21.60;99.90;;;;;;5051024;28;20270;-64
2021/08/10 12:10:56;;;;;;;5.27;2.90;;;21.80;1.00;;;;;;5048653;28;20260;-61
2021/08/10 12:13:24;;;;;;;4.00;2.53;;;21.90;99.90;;;;;;5050929;28;20658;-62
2021/08/10 12:15:51;;;;;;;4.33;2.70;;;22.10;99.90;;;;;;5050945;28;20259;-62
2021/08/10 12:18:20;;;;;;;3.73;2.30;;;22.20;99.90;;;;;;5050801;28;20834;-62
2021/08/10 12:20:58;;;;;;;5.80;3.00;;;22.30;99.90;;;;;;5050299;28;20291;-62
2021/08/10 12:23:26;;;;;;;3.50;2.57;;;22.30;99.90;;;;;;5050858;28;20236;-61
2021/08/10 12:25:54;;;;;;;4.03;2.67;;;22.20;99.90;;;;;;5051324;28;20240;-62
2021/08/10 12:28:21;;;;;;;4.00;2.30;;;22.20;99.90;;;;;;5048514;28;20212;-62
2021/08/10 12:30:48;;;;;;;4.97;2.77;;;22.20;99.90;;;;;;5050346;28;20229;-62
2021/08/10 12:33:23;;;;;;;4.87;2.73;;;22.00;99.90;;;;;;5050640;28;20248;-62
2021/08/10 12:35:57;;;;;;;5.73;3.07;;;21.90;99.90;;;;;;5050425;28;20285;-63
2021/08/10 12:38:24;;;;;;;7.37;3.13;;;21.90;99.90;;;;;;5050837;28;20205;-64
2021/08/10 12:40:52;;;;;;;4.63;2.73;;;21.70;99.90;;;;;;5050327;28;20647;-64
2021/08/10 12:43:20;;;;;;;5.97;3.30;;;21.40;99.90;;;;;;5044433;28;20307;-64
2021/08/10 12:45:48;;;;;;;5.87;3.10;;;21.30;99.90;;;;;;5050308;28;20198;-65
2021/08/10 12:48:39;;;;;;;6.17;2.97;;;21.40;99.90;;;;;;5050611;28;20670;-64
2021/08/10 12:51:06;;;;;;;5.03;2.70;;;21.80;1.00;;;;;;5034938;28;20229;-62
2021/08/10 12:53:34;;;;;;;6.33;3.10;;;22.00;99.90;;;;;;5046615;28;20197;-62
2021/08/10 12:56:03;;;;;;;4.60;3.10;;;22.00;99.90;;;;;;5050557;28;20213;-64
2021/08/10 12:58:32;;;;;;;7.47;2.80;;;22.20;99.90;;;;;;5048187;28;20209;-63